Time;durP1;ratioP1;P1;durP2;ratioP2;P2;SDS_P1;SDS_P2;PMS_P1;PMS_P2;Temp;Humidity;BMP_temperature;BMP_pressure;BME280_temperature;BME280_humidity;BME280_pressure;Samples;Min_cycle;Max_cycle;Signal;HPM_P1;HPM_P2
2022/05/03 00:00:13;;;;;;;10.93;8.20;;;;;;;10.53;53.24;101197.31;682470;29;1202;-82
2022/05/03 00:00:46;;;;;;;11.55;8.43;;;;;;;10.59;53.01;101201.84;680071;29;1244;-83
2022/05/03 00:01:30;;;;;;;11.95;8.57;;;;;;;10.60;53.32;101201.00;684589;28;1052;-82
2022/05/03 00:02:06;;;;;;;12.88;8.95;;;;;;;10.46;53.37;101183.97;690556;28;1464;-83
2022/05/03 00:02:39;;;;;;;10.45;8.15;;;;;;;10.53;52.99;101201.63;696236;28;865;-82
2022/05/03 00:03:08;;;;;;;10.80;7.57;;;;;;;10.48;52.92;101188.41;693737;28;857;-83
2022/05/03 00:03:41;;;;;;;10.98;7.75;;;;;;;10.40;53.01;101188.13;690936;28;840;-83
2022/05/03 00:04:20;;;;;;;11.05;7.80;;;;;;;10.48;53.34;101200.56;688039;28;1233;-83
2022/05/03 00:05:03;;;;;;;11.70;7.90;;;;;;;10.34;53.15;101180.09;687863;28;1258;-82
2022/05/03 00:05:40;;;;;;;12.40;8.38;;;;;;;10.43;53.41;101207.34;693485;28;1146;-82
2022/05/03 00:06:04;;;;;;;11.73;8.27;;;;;;;10.41;53.51;101207.28;690708;28;1983;-82
2022/05/03 00:07:01;;;;;;;11.07;8.02;;;;;;;10.39;53.34;101204.63;688066;28;1274;-83
2022/05/03 00:07:47;;;;;;;9.98;8.68;;;;;;;10.35;53.42;101201.84;685341;28;1045;-83
2022/05/03 00:08:27;;;;;;;10.95;8.07;;;;;;;10.33;53.63;101199.16;693293;28;1552;-82
2022/05/03 00:08:53;;;;;;;9.90;7.55;;;;;;;10.24;53.53;101193.63;688054;28;815;-82
2022/05/03 00:09:49;;;;;;;8.73;7.20;;;;;;;10.29;53.48;101197.31;687657;28;1184;-82
2022/05/03 00:10:14;;;;;;;9.45;7.70;;;;;;;10.29;53.77;101202.53;682361;28;1202;-82
2022/05/03 00:11:19;;;;;;;10.70;7.50;;;;;;;10.28;53.99;101205.97;685452;28;764;-83
2022/05/03 00:11:59;;;;;;;10.15;7.85;;;;;;;10.28;53.70;101205.97;690777;28;901;-82
2022/05/03 00:12:26;;;;;;;10.82;7.70;;;;;;;10.24;53.86;101198.84;685685;28;1186;-83
2022/05/03 00:13:06;;;;;;;9.98;7.70;;;;;;;10.19;53.87;101195.16;680102;29;1381;-82
2022/05/03 00:13:29;;;;;;;10.27;7.90;;;;;;;10.22;53.79;101203.09;685513;28;839;-82
2022/05/03 00:14:05;;;;;;;11.00;8.13;;;;;;;10.13;54.00;101188.88;690710;28;1248;-82
2022/05/03 00:14:34;;;;;;;12.93;8.32;;;;;;;10.22;54.02;101200.47;690662;28;1530;-82
2022/05/03 00:14:58;;;;;;;10.93;8.20;;;;;;;10.10;53.92;101191.41;688021;28;1123;-83
2022/05/03 00:15:22;;;;;;;9.68;7.60;;;;;;;10.16;53.99;101198.56;685070;28;1345;-82
2022/05/03 00:15:43;;;;;;;9.38;7.40;;;;;;;10.08;54.07;101186.94;687853;28;1103;-83
2022/05/03 00:16:05;;;;;;;10.48;7.80;;;;;;;10.15;53.89;101199.38;685409;28;1210;-82
2022/05/03 00:16:26;;;;;;;11.07;7.95;;;;;;;10.13;54.16;101204.53;685384;28;1057;-83
2022/05/03 00:16:49;;;;;;;11.35;8.10;;;;;;;10.09;54.27;101194.81;685448;28;1323;-83
2022/05/03 00:17:12;;;;;;;10.85;8.18;;;;;;;10.05;54.00;101187.72;690608;28;1084;-82
2022/05/03 00:17:33;;;;;;;10.68;8.20;;;;;;;10.11;54.09;101198.38;690319;28;1355;-83
2022/05/03 00:17:54;;;;;;;10.50;7.85;;;;;;;10.09;54.33;101194.81;685389;28;1264;-82
2022/05/03 00:18:15;;;;;;;10.75;7.70;;;;;;;10.05;54.01;101192.94;682599;29;1187;-82
2022/05/03 00:18:36;;;;;;;9.55;7.43;;;;;;;10.05;54.38;101186.81;688175;28;1356;-82
2022/05/03 00:18:57;;;;;;;11.30;7.90;;;;;;;10.00;54.02;101181.44;690931;28;775;-82
2022/05/03 00:19:18;;;;;;;11.82;8.00;;;;;;;9.99;54.20;101180.56;687887;28;1163;-82
2022/05/03 00:19:39;;;;;;;11.88;7.95;;;;;;;9.98;54.46;101183.09;687543;28;744;-82
2022/05/03 00:20:01;;;;;;;9.95;7.60;;;;;;;9.98;54.20;101189.22;691964;28;1305;-82
2022/05/03 00:20:22;;;;;;;9.10;7.47;;;;;;;10.05;54.34;101192.03;692857;28;1250;-82
2022/05/03 00:20:44;;;;;;;8.97;7.50;;;;;;;10.00;54.19;101184.03;693142;28;1134;-82
2022/05/03 00:21:06;;;;;;;10.45;7.32;;;;;;;10.02;54.44;101192.84;688060;28;1449;-83
2022/05/03 00:22:03;;;;;;;10.70;7.60;;;;;;;10.06;54.75;101194.69;685305;28;1496;-82
2022/05/03 00:22:24;;;;;;;10.20;7.80;;;;;;;9.99;54.65;101197.91;687469;28;1617;-82
2022/05/03 00:22:45;;;;;;;9.88;8.00;;;;;;;9.94;54.91;101179.50;693540;28;1409;-83
2022/05/03 00:23:07;;;;;;;10.25;8.25;;;;;;;10.04;54.85;101201.59;692606;28;1186;-82
2022/05/03 00:23:28;;;;;;;10.15;8.25;;;;;;;10.05;54.82;101198.16;685351;28;929;-83
2022/05/03 00:23:49;;;;;;;10.68;8.27;;;;;;;9.95;54.97;101183.88;690801;28;1190;-82
2022/05/03 00:24:10;;;;;;;9.45;7.72;;;;;;;9.93;55.25;101176.81;692985;28;1332;-82
2022/05/03 00:24:31;;;;;;;9.43;7.90;;;;;;;9.92;55.10;101182.88;699158;28;1172;-83
2022/05/03 00:24:54;;;;;;;9.82;7.90;;;;;;;9.97;55.04;101189.16;690548;28;1270;-82
2022/05/03 00:25:16;;;;;;;11.13;8.30;;;;;;;9.96;55.12;101188.25;688024;28;1032;-82
2022/05/03 00:25:38;;;;;;;11.50;8.07;;;;;;;10.00;55.16;101194.47;685345;28;1250;-82
2022/05/03 00:25:59;;;;;;;12.15;8.13;;;;;;;10.02;54.73;101200.66;685506;28;1903;-82
2022/05/03 00:26:20;;;;;;;13.00;7.95;;;;;;;9.97;54.76;101189.16;685323;28;1166;-82
2022/05/03 00:26:42;;;;;;;12.75;7.93;;;;;;;9.99;55.33;101190.09;686133;28;1302;-82
2022/05/03 00:27:03;;;;;;;9.32;7.72;;;;;;;9.95;55.05;101185.63;687998;28;1243;-82
2022/05/03 00:27:26;;;;;;;10.85;7.90;;;;;;;9.89;54.87;101178.44;685368;28;1080;-82
2022/05/03 00:27:47;;;;;;;10.70;7.80;;;;;;;10.01;55.35;101201.47;688155;28;1014;-82
2022/05/03 00:28:08;;;;;;;9.40;7.53;;;;;;;9.93;54.83;101184.63;688047;28;1036;-83
2022/05/03 00:28:29;;;;;;;9.25;7.50;;;;;;;9.94;55.05;101187.31;688011;28;1344;-82
2022/05/03 00:28:51;;;;;;;9.30;7.57;;;;;;;9.92;54.95;101185.47;687980;28;1167;-83
2022/05/03 00:29:12;;;;;;;9.90;7.88;;;;;;;9.91;55.28;101187.22;690500;28;1503;-82
2022/05/03 00:29:33;;;;;;;10.70;7.82;;;;;;;9.98;54.92;101196.16;687776;28;787;-83
2022/05/03 00:29:57;;;;;;;11.18;7.90;;;;;;;9.93;55.23;101184.63;685316;28;1384;-83
2022/05/03 00:30:18;;;;;;;11.40;7.90;;;;;;;9.87;54.88;101175.78;685324;28;1093;-82
2022/05/03 00:30:40;;;;;;;10.65;7.70;;;;;;;9.89;54.96;101183.63;685334;28;1334;-82
2022/05/03 00:31:01;;;;;;;10.90;7.88;;;;;;;9.94;54.95;101194.28;688012;28;1178;-83
2022/05/03 00:31:23;;;;;;;10.07;7.90;;;;;;;9.87;55.05;101181.00;687475;28;1388;-82
2022/05/03 00:31:45;;;;;;;11.48;8.32;;;;;;;9.88;54.76;101181.88;685375;28;1307;-82
2022/05/03 00:32:06;;;;;;;11.43;8.40;;;;;;;9.96;54.76;101197.81;687998;28;1165;-82
2022/05/03 00:32:27;;;;;;;10.60;8.20;;;;;;;9.95;54.88;101199.50;688105;28;1338;-83
2022/05/03 00:32:48;;;;;;;9.07;7.63;;;;;;;9.91;54.63;101194.13;690847;28;820;-83
2022/05/03 00:33:09;;;;;;;8.93;7.50;;;;;;;9.92;54.68;101195.91;685380;28;1017;-82
2022/05/03 00:33:33;;;;;;;8.65;7.40;;;;;;;9.85;54.62;101186.97;690479;28;1064;-82
2022/05/03 00:33:54;;;;;;;10.45;7.97;;;;;;;9.84;54.51;101193.91;693671;28;808;-83
2022/05/03 00:34:16;;;;;;;10.98;7.95;;;;;;;9.91;54.67;101200.25;690680;28;1126;-83
2022/05/03 00:34:37;;;;;;;10.40;7.80;;;;;;;9.87;54.57;101196.63;688132;28;1164;-83
2022/05/03 00:34:59;;;;;;;9.98;7.50;;;;;;;9.89;54.39;101195.81;688099;28;906;-82
2022/05/03 00:35:21;;;;;;;9.63;7.40;;;;;;;9.85;54.90;101195.66;687984;28;1391;-83
2022/05/03 00:35:43;;;;;;;9.13;7.43;;;;;;;9.78;54.61;101178.06;688149;28;815;-82
2022/05/03 00:36:04;;;;;;;9.48;7.30;;;;;;;9.83;54.65;101192.13;685315;28;1254;-83
2022/05/03 00:36:25;;;;;;;9.60;7.22;;;;;;;9.79;54.85;101187.63;682591;28;1138;-83
2022/05/03 00:36:46;;;;;;;9.27;6.97;;;;;;;9.76;54.75;101184.91;682765;29;855;-82
2022/05/03 00:37:09;;;;;;;10.00;7.10;;;;;;;9.75;54.67;101185.72;682837;29;768;-82
2022/05/03 00:37:30;;;;;;;10.18;7.35;;;;;;;9.78;54.70;101188.47;685375;28;1455;-82
2022/05/03 00:37:51;;;;;;;10.43;7.53;;;;;;;9.77;54.58;101191.88;684664;28;1277;-83
2022/05/03 00:38:11;;;;;;;9.50;7.67;;;;;;;9.75;54.61;101182.25;690164;28;1141;-83
2022/05/03 00:38:34;;;;;;;9.43;7.78;;;;;;;9.76;54.74;101184.91;688096;28;1153;-83
2022/05/03 00:38:55;;;;;;;9.65;7.82;;;;;;;9.81;54.80;101192.88;688019;28;1217;-82
2022/05/03 00:39:16;;;;;;;10.55;8.07;;;;;;;9.75;54.70;101185.72;687994;28;1079;-82
2022/05/03 00:39:36;;;;;;;10.38;7.75;;;;;;;9.76;54.73;101182.28;687725;28;844;-82
2022/05/03 00:39:57;;;;;;;10.50;7.73;;;;;;;9.79;54.82;101182.44;687976;28;784;-82
2022/05/03 00:40:20;;;;;;;9.50;7.60;;;;;;;9.78;55.25;101180.66;687900;28;1310;-82
2022/05/03 00:40:53;;;;;;;8.88;7.55;;;;;;;9.81;54.79;101187.69;685334;28;1338;-82
2022/05/03 00:41:44;;;;;;;9.88;7.88;;;;;;;9.73;55.16;101179.59;685284;28;1066;-82
2022/05/03 00:42:22;;;;;;;10.23;7.75;;;;;;;9.71;55.20;101182.13;685284;28;1073;-83
2022/05/03 00:42:57;;;;;;;10.57;7.88;;;;;;;9.72;55.11;101188.22;687956;28;1349;-83
2022/05/03 00:43:30;;;;;;;11.00;7.40;;;;;;;9.78;54.74;101195.41;693316;28;1503;-82
2022/05/03 00:45:25;;;;;;;9.88;7.97;;;;;;;9.71;54.78;101200.38;689668;28;1354;-82
2022/05/03 00:45:52;;;;;;;11.65;7.60;;;;;;;9.63;54.73;101187.88;689887;28;831;-82
2022/05/03 00:46:16;;;;;;;11.57;7.95;;;;;;;9.59;54.64;101177.31;690494;28;1899;-82
2022/05/03 00:46:39;;;;;;;10.05;7.88;;;;;;;9.58;55.16;101183.38;685426;28;1402;-82
2022/05/03 00:47:06;;;;;;;10.55;7.55;;;;;;;9.67;55.01;101195.88;685328;28;1378;-82
2022/05/03 00:47:45;;;;;;;10.77;7.60;;;;;;;9.69;55.26;101201.13;690741;28;1263;-82
2022/05/03 00:48:25;;;;;;;10.50;8.10;;;;;;;9.69;55.03;101198.53;687904;28;1123;-83
2022/05/03 00:49:03;;;;;;;10.00;8.27;;;;;;;9.63;55.15;101183.53;690571;28;962;-83
2022/05/03 00:49:41;;;;;;;9.40;7.70;;;;;;;9.68;55.23;101183.72;687151;28;1370;-81
2022/05/03 00:50:06;;;;;;;10.50;7.65;;;;;;;9.75;55.22;101192.69;688896;28;1202;-82
2022/05/03 00:50:33;;;;;;;11.32;8.10;;;;;;;9.77;55.40;101191.88;690694;28;1141;-83
2022/05/03 00:51:06;;;;;;;12.70;8.55;;;;;;;9.79;55.71;101195.47;693229;28;1220;-82
2022/05/03 00:51:46;;;;;;;11.65;8.57;;;;;;;9.79;55.51;101198.06;688000;28;886;-82
2022/05/03 00:52:20;;;;;;;10.23;7.85;;;;;;;9.77;55.22;101188.41;682422;29;1093;-82
2022/05/03 00:52:47;;;;;;;8.95;7.65;;;;;;;9.79;55.35;101195.47;685978;28;915;-83
2022/05/03 00:53:20;;;;;;;8.80;7.60;;;;;;;9.79;55.41;101190.25;685235;28;1107;-82
2022/05/03 00:54:15;;;;;;;9.43;7.70;;;;;;;9.68;55.48;101182.00;685440;28;769;-82
2022/05/03 00:55:09;;;;;;;9.75;7.75;;;;;;;9.71;55.30;101189.06;674611;29;1196;-82
2022/05/03 00:55:50;;;;;;;9.55;7.70;;;;;;;9.70;55.09;101184.66;689800;28;1832;-83
2022/05/03 00:56:33;;;;;;;9.60;7.50;;;;;;;9.69;55.29;101189.00;685319;28;1062;-82
2022/05/03 00:57:20;;;;;;;10.23;7.32;;;;;;;9.63;55.25;101175.72;687930;28;1854;-82
2022/05/03 00:57:50;;;;;;;9.88;7.88;;;;;;;9.69;55.27;101188.09;690745;28;1304;-83
2022/05/03 00:58:38;;;;;;;11.23;8.10;;;;;;;9.67;55.17;101184.56;693335;28;1102;-83
2022/05/03 00:59:19;;;;;;;10.63;7.30;;;;;;;9.64;55.76;101185.31;696190;28;815;-82
2022/05/03 01:00:05;;;;;;;9.32;7.30;;;;;;;9.62;55.35;101188.69;690485;28;992;-82
2022/05/03 01:00:36;;;;;;;8.80;7.00;;;;;;;9.52;55.43;101175.31;693348;28;1114;-83
2022/05/03 01:01:32;;;;;;;9.18;7.20;;;;;;;9.49;55.56;101180.41;693415;28;1117;-82
2022/05/03 01:02:07;;;;;;;9.90;7.47;;;;;;;9.48;55.68;101186.47;693508;28;1148;-83
2022/05/03 01:02:49;;;;;;;11.20;7.55;;;;;;;9.50;55.61;101187.41;687978;28;1397;-82
2022/05/03 01:03:20;;;;;;;10.90;7.63;;;;;;;9.45;55.46;101182.00;690346;28;1116;-82
2022/05/03 01:03:58;;;;;;;16.23;7.40;;;;;;;9.49;55.73;101190.84;690512;28;1123;-83
2022/05/03 01:04:30;;;;;;;12.73;7.47;;;;;;;9.42;55.53;101179.28;690272;28;1687;-82
2022/05/03 01:05:10;;;;;;;9.95;7.03;;;;;;;9.43;55.28;101180.16;688064;28;816;-82
2022/05/03 01:05:42;;;;;;;10.02;6.97;;;;;;;9.41;55.69;101179.22;686555;28;1121;-82
2022/05/03 01:06:32;;;;;;;10.15;7.20;;;;;;;9.35;55.87;101171.16;691954;28;1923;-83
2022/05/03 01:07:18;;;;;;;10.65;7.90;;;;;;;9.35;55.48;101171.16;687746;28;1227;-82
2022/05/03 01:07:42;;;;;;;10.10;7.00;;;;;;;9.38;55.74;101176.47;690645;28;913;-82
2022/05/03 01:08:05;;;;;;;9.93;6.80;;;;;;;9.37;55.79;101178.22;687848;28;1245;-82
2022/05/03 01:08:38;;;;;;;9.35;7.28;;;;;;;9.29;55.64;101172.69;685314;28;999;-83
2022/05/03 01:09:05;;;;;;;10.00;7.60;;;;;;;9.35;55.75;101179.88;687793;28;1382;-82
2022/05/03 01:09:40;;;;;;;9.40;7.43;;;;;;;9.27;55.77;101163.06;686964;28;1562;-82
2022/05/03 01:10:06;;;;;;;9.50;7.60;;;;;;;9.33;55.82;101176.31;690655;28;843;-82
2022/05/03 01:10:51;;;;;;;9.38;7.40;;;;;;;9.28;55.47;101170.91;690151;28;976;-82
2022/05/03 01:11:25;;;;;;;8.93;6.65;;;;;;;9.27;55.54;101169.13;687444;28;1361;-82
2022/05/03 01:12:09;;;;;;;9.25;7.13;;;;;;;9.30;55.85;101174.50;687936;28;992;-82
2022/05/03 01:13:03;;;;;;;10.00;7.50;;;;;;;9.26;55.97;101180.38;690620;28;1123;-83
2022/05/03 01:13:34;;;;;;;9.45;7.25;;;;;;;9.21;55.80;101174.09;683981;28;1319;-82
2022/05/03 01:14:27;;;;;;;8.60;7.05;;;;;;;9.24;55.70;101182.06;685249;28;1116;-82
2022/05/03 01:15:06;;;;;;;9.52;7.15;;;;;;;9.26;55.73;101192.50;687506;28;1252;-82
2022/05/03 01:15:34;;;;;;;10.32;7.53;;;;;;;9.15;56.22;101173.88;688021;28;1261;-82
2022/05/03 01:16:29;;;;;;;9.80;7.20;;;;;;;9.17;56.20;101180.91;685332;28;876;-82
2022/05/03 01:16:58;;;;;;;8.75;7.15;;;;;;;9.14;55.75;101182.47;682580;29;1212;-82
2022/05/03 01:17:26;;;;;;;8.38;7.25;;;;;;;9.15;56.20;101184.28;687940;28;1224;-82
2022/05/03 01:18:08;;;;;;;8.30;7.00;;;;;;;9.05;56.13;101173.47;687853;28;1245;-82
2022/05/03 01:18:50;;;;;;;9.73;7.45;;;;;;;9.03;56.25;101167.31;688035;28;799;-82
2022/05/03 01:19:50;;;;;;;8.60;7.00;;;;;;;9.15;56.03;101186.91;689357;28;1086;-82
2022/05/03 01:20:54;;;;;;;10.60;7.50;;;;;;;9.12;55.99;101184.16;692788;28;1036;-83
2022/05/03 01:21:32;;;;;;;10.00;7.00;;;;;;;9.03;56.08;101176.88;693199;28;1125;-82
2022/05/03 01:22:08;;;;;;;9.43;6.85;;;;;;;8.98;56.16;101174.03;690463;28;1295;-83
2022/05/03 01:22:50;;;;;;;9.80;7.45;;;;;;;9.05;56.45;101189.09;684995;28;1249;-82
2022/05/03 01:23:24;;;;;;;9.45;7.18;;;;;;;8.94;56.68;101169.56;692220;28;1345;-82
2022/05/03 01:24:26;;;;;;;10.30;6.90;;;;;;;9.01;56.39;101181.09;693390;28;859;-83
2022/05/03 01:25:28;;;;;;;10.25;6.75;;;;;;;8.99;56.31;101188.88;690473;28;1137;-84
2022/05/03 01:25:57;;;;;;;11.57;7.38;;;;;;;8.96;56.46;101180.91;687989;28;1217;-82
2022/05/03 01:26:42;;;;;;;10.43;7.32;;;;;;;8.93;56.66;101183.41;690491;28;1123;-83
2022/05/03 01:27:50;;;;;;;11.50;7.30;;;;;;;8.92;56.87;101184.22;687700;28;1227;-83
2022/05/03 01:28:31;;;;;;;10.30;7.50;;;;;;;8.90;57.22;101178.06;679636;29;1194;-82
2022/05/03 01:29:14;;;;;;;10.90;7.88;;;;;;;8.95;57.14;101181.75;682460;29;853;-85
2022/05/03 01:29:45;;;;;;;9.75;7.47;;;;;;;8.93;57.31;101174.69;676667;29;1435;-82
2022/05/03 01:30:09;;;;;;;10.00;7.57;;;;;;;8.93;57.20;101174.69;677240;29;995;-85
2022/05/03 01:30:31;;;;;;;9.93;7.35;;;;;;;8.84;57.03;101170.00;679806;29;1258;-84
2022/05/03 01:30:52;;;;;;;10.10;7.53;;;;;;;8.85;56.90;101162.25;682815;28;963;-85
2022/05/03 01:31:13;;;;;;;10.00;7.72;;;;;;;8.86;57.26;101161.41;687193;28;1115;-84
2022/05/03 01:31:35;;;;;;;9.98;7.85;;;;;;;8.90;56.96;101173.75;687847;28;1256;-84
2022/05/03 01:32:05;;;;;;;9.30;6.97;;;;;;;8.85;57.42;101169.19;693258;28;835;-85
2022/05/03 01:32:26;;;;;;;8.60;6.63;;;;;;;8.80;57.49;101152.47;693041;28;858;-84
2022/05/03 01:32:50;;;;;;;9.32;7.20;;;;;;;8.90;57.48;101172.84;693144;28;1268;-84
2022/05/03 01:33:17;;;;;;;8.85;7.22;;;;;;;8.87;57.47;101170.13;682483;29;1062;-84
2022/05/03 01:33:41;;;;;;;9.30;7.40;;;;;;;8.89;57.63;101176.28;685110;28;2064;-84
2022/05/03 01:34:02;;;;;;;9.98;7.93;;;;;;;8.90;57.44;101176.34;685175;28;1361;-84
2022/05/03 01:34:25;;;;;;;10.25;7.90;;;;;;;8.90;57.64;101180.66;687278;28;1257;-84
2022/05/03 01:34:46;;;;;;;13.15;8.05;;;;;;;8.87;57.63;101172.72;685348;28;874;-84
2022/05/03 01:35:07;;;;;;;13.10;7.90;;;;;;;8.84;57.65;101159.59;690587;28;1032;-84
2022/05/03 01:35:36;;;;;;;12.10;7.67;;;;;;;8.89;57.91;101168.47;685441;28;1022;-84
2022/05/03 01:36:00;;;;;;;8.90;7.03;;;;;;;8.95;57.42;101179.13;682423;28;1331;-84
2022/05/03 01:36:31;;;;;;;9.10;7.10;;;;;;;8.88;57.79;101165.00;684866;28;1357;-84
2022/05/03 01:37:00;;;;;;;8.77;6.93;;;;;;;8.94;57.12;101177.38;685179;28;1883;-84
2022/05/03 01:37:34;;;;;;;8.45;7.20;;;;;;;8.81;57.32;101151.66;687528;28;1208;-84
2022/05/03 01:38:10;;;;;;;10.57;7.53;;;;;;;8.89;57.29;101177.19;690568;28;1100;-84
2022/05/03 01:38:47;;;;;;;9.90;7.10;;;;;;;8.91;57.64;101175.53;690682;28;835;-84
2022/05/03 01:39:19;;;;;;;9.30;6.97;;;;;;;8.75;57.21;101150.59;687718;28;1299;-84
2022/05/03 01:40:01;;;;;;;8.52;6.72;;;;;;;8.86;57.57;101171.81;687338;28;901;-84
2022/05/03 01:40:43;;;;;;;8.05;6.80;;;;;;;8.85;57.65;101170.06;690452;28;1164;-85
2022/05/03 01:41:29;;;;;;;8.88;7.25;;;;;;;8.86;57.91;101165.75;692182;28;1202;-84
2022/05/03 01:42:00;;;;;;;10.88;7.50;;;;;;;8.79;57.82;101153.31;688123;28;1173;-84
2022/05/03 01:42:39;;;;;;;10.23;7.50;;;;;;;8.87;57.66;101172.72;684964;28;1562;-84
2022/05/03 01:43:13;;;;;;;9.75;6.85;;;;;;;8.83;57.23;101160.44;684542;28;1271;-84
2022/05/03 01:43:58;;;;;;;10.02;7.00;;;;;;;8.89;57.23;101168.47;695932;28;1592;-84
2022/05/03 01:44:34;;;;;;;10.05;7.10;;;;;;;8.92;57.73;101171.22;695788;28;1203;-84
2022/05/03 01:45:33;;;;;;;9.13;6.80;;;;;;;8.91;57.75;101169.44;685072;28;1249;-84
2022/05/03 01:46:06;;;;;;;9.80;7.10;;;;;;;8.93;57.80;101173.00;687868;28;1362;-84
2022/05/03 01:46:34;;;;;;;9.82;7.40;;;;;;;8.83;57.36;101150.88;687758;28;1175;-84
2022/05/03 01:47:35;;;;;;;9.23;7.07;;;;;;;8.91;57.46;101167.72;693301;28;858;-84
2022/05/03 01:48:17;;;;;;;9.70;6.78;;;;;;;8.86;57.44;101160.53;679681;29;1081;-84
2022/05/03 01:50:40;;;;;;;8.60;6.60;;;;;;;8.85;57.04;101163.97;687695;28;1313;-85
2022/05/03 01:51:24;;;;;;;9.35;6.75;;;;;;;8.82;57.17;101158.63;687801;28;1364;-85
2022/05/03 01:51:44;;;;;;;10.05;6.63;;;;;;;8.81;56.94;101173.38;690589;28;909;-84
2022/05/03 01:52:23;;;;;;;9.60;6.38;;;;;;;8.74;57.63;101156.59;693316;28;1187;-84
2022/05/03 01:53:06;;;;;;;11.40;6.53;;;;;;;8.80;57.44;101162.88;687873;28;1225;-84
2022/05/03 01:53:43;;;;;;;9.32;6.43;;;;;;;8.71;57.11;101146.06;687885;28;1975;-84
2022/05/03 01:54:23;;;;;;;7.03;6.32;;;;;;;8.80;57.05;101160.28;693160;28;1371;-84
2022/05/03 01:54:59;;;;;;;9.18;7.20;;;;;;;8.79;57.19;101166.31;685233;28;962;-84
2022/05/03 01:55:38;;;;;;;8.82;6.65;;;;;;;8.77;57.51;101164.53;687771;28;1159;-84
2022/05/03 01:56:35;;;;;;;7.80;6.80;;;;;;;8.76;57.02;101165.38;687758;28;898;-84
2022/05/03 01:57:14;;;;;;;10.90;7.22;;;;;;;8.75;57.65;101166.22;690590;28;870;-84
2022/05/03 01:57:54;;;;;;;9.13;7.20;;;;;;;8.62;57.17;101141.34;693328;28;862;-84
2022/05/03 01:58:30;;;;;;;8.60;7.05;;;;;;;8.75;57.23;101162.69;693210;28;1008;-84
2022/05/03 01:59:16;;;;;;;8.88;7.20;;;;;;;8.72;57.04;101162.59;688727;28;1060;-84
2022/05/03 02:00:06;;;;;;;9.45;7.32;;;;;;;8.74;57.06;101159.19;690233;28;843;-84
2022/05/03 02:00:36;;;;;;;9.52;6.40;;;;;;;8.63;57.27;101147.47;685600;28;1366;-84
2022/05/03 02:01:10;;;;;;;9.45;6.63;;;;;;;8.69;57.72;101157.22;682653;29;940;-84
2022/05/03 02:01:39;;;;;;;8.05;6.63;;;;;;;8.70;57.63;101151.19;687755;28;1273;-84
2022/05/03 02:02:12;;;;;;;9.02;6.88;;;;;;;8.64;57.74;101141.44;690130;28;1167;-84
2022/05/03 02:03:02;;;;;;;9.43;7.22;;;;;;;8.81;57.38;101157.75;690553;28;838;-84
2022/05/03 02:03:50;;;;;;;8.73;6.60;;;;;;;8.83;56.86;101155.22;687831;28;1073;-84
2022/05/03 02:04:19;;;;;;;8.57;6.70;;;;;;;8.80;57.64;101157.69;690425;28;1214;-84
2022/05/03 02:05:01;;;;;;;7.78;6.90;;;;;;;8.76;57.58;101154.97;685080;28;1288;-84
2022/05/03 02:05:50;;;;;;;9.27;6.80;;;;;;;8.76;57.62;101154.97;684841;28;1232;-84
2022/05/03 02:06:13;;;;;;;8.25;6.50;;;;;;;8.68;57.81;101148.56;684876;28;1947;-83
2022/05/03 02:06:55;;;;;;;8.45;6.90;;;;;;;8.75;57.28;101161.00;693188;28;1117;-84
2022/05/03 02:07:40;;;;;;;8.50;7.10;;;;;;;8.76;57.24;101164.47;687679;28;1210;-85
2022/05/03 02:08:00;;;;;;;11.88;7.60;;;;;;;8.73;57.18;101148.75;679760;29;1291;-84
2022/05/03 02:08:24;;;;;;;11.20;7.40;;;;;;;8.66;57.43;101139.78;685156;28;1084;-84
2022/05/03 02:08:47;;;;;;;12.68;7.40;;;;;;;8.76;57.42;101160.16;687884;28;1373;-84
2022/05/03 02:09:09;;;;;;;10.15;7.00;;;;;;;8.76;57.51;101156.66;693058;28;1192;-84
2022/05/03 02:11:02;;;;;;;11.45;6.85;;;;;;;8.80;57.89;101155.06;687191;28;1236;-84
2022/05/03 02:12:00;;;;;;;11.30;6.70;;;;;;;8.80;57.41;101160.28;691852;28;878;-84
2022/05/03 02:13:10;;;;;;;8.30;6.20;;;;;;;8.79;57.81;101161.13;690326;28;1169;-84
2022/05/03 02:14:52;;;;;;;9.75;7.05;;;;;;;8.63;57.64;101150.06;681842;28;1312;-84
2022/05/03 02:15:19;;;;;;;11.43;7.20;;;;;;;8.66;57.13;101152.78;676969;29;1072;-84
2022/05/03 02:15:44;;;;;;;12.02;7.45;;;;;;;8.56;57.38;101146.28;679761;29;918;-84
2022/05/03 02:16:09;;;;;;;8.60;6.72;;;;;;;8.65;56.82;101157.94;679538;29;1345;-84
2022/05/03 02:16:41;;;;;;;9.75;6.70;;;;;;;8.55;57.32;101146.22;679622;29;1384;-85
2022/05/03 02:17:11;;;;;;;9.38;6.80;;;;;;;8.62;57.05;101163.91;682444;29;1088;-84
2022/05/03 02:18:03;;;;;;;8.15;6.53;;;;;;;8.58;57.16;101160.25;690398;28;1205;-84
2022/05/03 02:18:51;;;;;;;9.30;6.68;;;;;;;8.47;57.29;101151.97;687784;28;985;-84
2022/05/03 02:19:37;;;;;;;9.95;7.05;;;;;;;8.49;57.36;101163.34;687555;28;1061;-84
2022/05/03 02:20:28;;;;;;;9.48;6.57;;;;;;;8.48;57.40;101164.16;686094;28;1879;-84
2022/05/03 02:21:10;;;;;;;10.30;6.30;;;;;;;8.47;57.38;101157.19;690457;28;776;-84
2022/05/03 02:21:46;;;;;;;9.25;6.00;;;;;;;8.39;57.24;101155.97;695934;28;890;-84
2022/05/03 02:22:24;;;;;;;8.90;6.20;;;;;;;8.45;57.64;101168.34;693181;28;1114;-84
2022/05/03 02:22:48;;;;;;;8.32;6.38;;;;;;;8.43;57.67;101165.69;687746;28;854;-84
2022/05/03 02:23:17;;;;;;;8.90;6.50;;;;;;;8.30;57.11;101145.16;690298;28;1208;-83
2022/05/03 02:23:47;;;;;;;9.10;6.70;;;;;;;8.31;57.93;101160.84;695398;28;1010;-85
2022/05/03 02:24:48;;;;;;;10.23;7.20;;;;;;;8.32;57.46;101166.91;690188;28;1017;-85
2022/05/03 02:25:32;;;;;;;8.10;6.70;;;;;;;8.19;57.36;101161.19;690055;28;1117;-84
2022/05/03 02:26:43;;;;;;;9.85;7.00;;;;;;;8.30;57.83;101168.56;682894;28;1159;-84
2022/05/03 02:27:10;;;;;;;9.32;7.15;;;;;;;8.19;58.23;101155.09;677729;29;1499;-84
2022/05/03 02:27:34;;;;;;;10.18;7.65;;;;;;;8.30;58.10;101168.56;679722;29;895;-84
2022/05/03 02:28:13;;;;;;;10.35;7.60;;;;;;;8.29;58.29;101161.59;682242;29;1251;-84
2022/05/03 02:28:41;;;;;;;9.43;7.35;;;;;;;8.26;58.17;101164.03;685032;28;1242;-84
2022/05/03 02:29:15;;;;;;;8.32;6.97;;;;;;;8.25;58.27;101159.66;682314;29;1071;-84
2022/05/03 02:29:48;;;;;;;8.50;6.22;;;;;;;8.31;58.12;101171.25;676667;29;1110;-84
2022/05/03 02:30:10;;;;;;;9.07;6.40;;;;;;;8.25;58.63;101159.66;676994;29;1104;-84
2022/05/03 02:30:33;;;;;;;7.68;6.70;;;;;;;8.33;58.39;101171.28;684939;28;1259;-84
2022/05/03 02:30:54;;;;;;;10.40;6.80;;;;;;;8.23;58.19;101155.28;687722;28;990;-84
2022/05/03 02:31:18;;;;;;;11.48;6.82;;;;;;;8.22;58.70;101145.72;684857;28;1382;-84
2022/05/03 02:32:00;;;;;;;11.43;7.00;;;;;;;8.31;58.65;101159.94;682339;29;1319;-84
2022/05/03 02:32:54;;;;;;;9.57;6.75;;;;;;;8.30;58.44;101158.16;684789;28;1300;-84
2022/05/03 02:33:26;;;;;;;8.05;6.45;;;;;;;8.38;58.22;101177.59;682603;28;1363;-84
2022/05/03 02:34:07;;;;;;;9.13;7.00;;;;;;;8.31;58.42;101163.44;684936;28;1237;-84
2022/05/03 02:34:45;;;;;;;8.43;6.90;;;;;;;8.38;58.79;101174.09;693166;28;1334;-84
2022/05/03 02:35:11;;;;;;;8.93;7.32;;;;;;;8.26;58.15;101154.53;693027;28;1349;-85
2022/05/03 02:35:34;;;;;;;8.93;7.63;;;;;;;8.30;58.35;101158.16;679860;29;1093;-84
2022/05/03 02:35:57;;;;;;;8.30;7.30;;;;;;;8.31;58.19;101170.34;679862;29;854;-84
2022/05/03 02:36:24;;;;;;;9.95;7.20;;;;;;;8.27;58.20;101161.53;687548;28;1156;-84
2022/05/03 02:37:00;;;;;;;10.77;6.90;;;;;;;8.21;57.94;101164.75;687814;28;1324;-84
2022/05/03 02:37:28;;;;;;;8.82;6.75;;;;;;;8.27;58.42;101174.53;693064;28;1148;-84
2022/05/03 02:37:55;;;;;;;8.70;7.15;;;;;;;8.13;58.02;101149.63;687322;28;1352;-84
2022/05/03 02:38:24;;;;;;;8.60;7.22;;;;;;;8.20;58.30;101162.06;687710;28;1338;-84
2022/05/03 02:38:59;;;;;;;8.50;6.50;;;;;;;8.25;58.58;101170.06;687499;28;1310;-84
2022/05/03 02:39:24;;;;;;;10.27;6.80;;;;;;;8.20;58.31;101168.19;690372;28;1064;-84
2022/05/03 02:39:54;;;;;;;9.52;6.85;;;;;;;8.17;58.32;101161.94;687370;28;1239;-84
2022/05/03 02:40:20;;;;;;;7.65;6.50;;;;;;;8.14;58.55;101165.28;679778;29;1081;-84
2022/05/03 02:40:46;;;;;;;8.60;6.82;;;;;;;8.05;58.62;101142.38;687691;28;1241;-84
2022/05/03 02:41:10;;;;;;;10.18;7.32;;;;;;;8.08;58.31;101157.22;690300;28;1226;-84
2022/05/03 02:41:33;;;;;;;9.90;7.20;;;;;;;8.07;58.55;101160.66;685072;28;800;-84
2022/05/03 02:41:58;;;;;;;9.63;7.32;;;;;;;8.09;58.33;101165.09;685086;28;1091;-84
2022/05/03 02:42:20;;;;;;;9.45;7.05;;;;;;;8.06;58.41;101164.94;687554;28;1094;-84